Time;durP1;ratioP1;P1;durP2;ratioP2;P2;SDS_P1;SDS_P2;PMS_P1;PMS_P2;Temp;Humidity;BMP_temperature;BMP_pressure;BME280_temperature;BME280_humidity;BME280_pressure;Samples;Min_cycle;Max_cycle;Signal;HPM_P1;HPM_P2
2023/03/14 00:00:06;;;;;;;0.33;0.30;;;12.70;99.90;;;;;;5095207;28;20220;-59
2023/03/14 00:02:32;;;;;;;3.23;2.90;;;12.70;99.90;;;;;;5095114;28;20249;-58
2023/03/14 00:04:59;;;;;;;1.23;0.60;;;12.60;99.90;;;;;;5095290;28;20209;-58
2023/03/14 00:07:26;;;;;;;0.40;0.40;;;12.60;99.90;;;;;;5095336;28;20201;-58
2023/03/14 00:09:53;;;;;;;0.30;0.30;;;12.60;99.90;;;;;;5095055;28;20719;-59
2023/03/14 00:12:20;;;;;;;0.47;0.30;;;12.60;99.90;;;;;;5095073;28;20227;-58
2023/03/14 00:14:48;;;;;;;0.43;0.23;;;12.70;99.90;;;;;;5095262;28;20209;-58
2023/03/14 00:17:14;;;;;;;0.73;0.30;;;12.70;99.90;;;;;;5095027;28;20208;-59
2023/03/14 00:19:41;;;;;;;0.60;0.30;;;12.60;99.90;;;;;;5094980;28;20329;-59
2023/03/14 00:22:08;;;;;;;0.60;0.30;;;12.60;99.90;;;;;;5095026;28;20204;-59
2023/03/14 00:24:35;;;;;;;0.50;0.30;;;12.60;99.90;;;;;;5095046;28;20208;-58
2023/03/14 00:27:01;;;;;;;0.70;0.50;;;12.60;99.90;;;;;;5094489;28;20204;-59
2023/03/14 00:29:28;;;;;;;0.57;0.23;;;12.50;99.90;;;;;;5094790;28;20243;-58
2023/03/14 00:31:56;;;;;;;0.70;0.50;;;12.50;99.90;;;;;;5094434;28;20782;-59
2023/03/14 00:34:23;;;;;;;0.60;0.40;;;12.60;99.90;;;;;;5094708;28;20208;-59
2023/03/14 00:36:49;;;;;;;0.60;0.40;;;12.50;99.90;;;;;;5094835;28;20213;-59
2023/03/14 00:39:16;;;;;;;0.53;0.40;;;12.60;99.90;;;;;;5094540;28;20232;-58
2023/03/14 00:41:43;;;;;;;2.03;0.50;;;12.60;99.90;;;;;;5094429;28;20211;-58
2023/03/14 00:44:10;;;;;;;0.40;0.30;;;12.60;99.90;;;;;;5094660;28;20204;-59
2023/03/14 00:46:37;;;;;;;0.20;0.20;;;12.60;99.90;;;;;;5094412;28;20204;-60
2023/03/14 00:49:05;;;;;;;0.43;0.23;;;12.60;99.90;;;;;;5094664;28;20588;-60
2023/03/14 00:51:31;;;;;;;0.60;0.30;;;12.70;99.90;;;;;;5094526;28;20280;-59
2023/03/14 00:53:58;;;;;;;0.30;0.30;;;12.70;99.90;;;;;;5094619;28;20212;-59
2023/03/14 00:56:25;;;;;;;0.43;0.27;;;12.60;99.90;;;;;;5094244;28;20204;-59
2023/03/14 00:58:54;;;;;;;0.40;0.20;;;12.60;99.90;;;;;;5093837;28;20208;-59
2023/03/14 01:01:21;;;;;;;0.47;0.40;;;12.60;99.90;;;;;;5094086;28;20196;-59
2023/03/14 01:03:51;;;;;;;0.93;0.30;;;12.60;99.90;;;;;;5094243;28;20224;-60
2023/03/14 01:06:22;;;;;;;0.30;0.30;;;12.60;99.90;;;;;;5094240;28;20582;-60
2023/03/14 01:08:49;;;;;;;0.50;0.40;;;12.60;99.90;;;;;;5093879;28;20215;-60
2023/03/14 01:11:18;;;;;;;1.80;0.30;;;12.60;99.90;;;;;;5093816;28;20659;-60
2023/03/14 01:13:46;;;;;;;2.77;0.30;;;12.60;99.90;;;;;;5093766;28;20205;-59
2023/03/14 01:16:14;;;;;;;0.30;0.20;;;12.60;99.90;;;;;;5093988;28;20200;-60
2023/03/14 01:18:43;;;;;;;1.23;0.30;;;12.50;99.90;;;;;;5093759;28;20204;-58
2023/03/14 01:21:13;;;;;;;0.87;0.37;;;12.50;99.90;;;;;;5093629;28;20232;-58
2023/03/14 01:23:42;;;;;;;0.83;0.23;;;12.40;99.90;;;;;;5093653;28;20215;-59
2023/03/14 01:26:10;;;;;;;0.33;0.10;;;12.40;99.90;;;;;;5093724;28;20726;-59
2023/03/14 01:28:37;;;;;;;1.47;0.30;;;12.40;99.90;;;;;;5094001;28;20257;-59
2023/03/14 01:31:04;;;;;;;0.10;0.10;;;12.40;99.90;;;;;;5094167;28;20225;-58
2023/03/14 01:33:31;;;;;;;0.20;0.20;;;12.50;99.90;;;;;;5093774;28;20265;-59
2023/03/14 01:35:58;;;;;;;1.30;0.30;;;12.50;99.90;;;;;;5093516;28;20204;-58
2023/03/14 01:38:24;;;;;;;0.73;0.33;;;12.40;99.90;;;;;;5092686;28;20676;-59
2023/03/14 01:40:52;;;;;;;0.40;0.20;;;12.40;99.90;;;;;;5093069;28;20224;-59
2023/03/14 01:43:20;;;;;;;0.20;0.20;;;12.40;99.90;;;;;;5093576;28;20599;-59
2023/03/14 01:46:37;;;;;;;1.00;0.57;;;12.50;99.90;;;;;;5093649;28;20219;-58
2023/03/14 01:49:13;;;;;;;0.93;0.43;;;12.50;99.90;;;;;;5093306;28;20200;-59
2023/03/14 01:51:46;;;;;;;0.67;0.23;;;12.60;99.90;;;;;;5093879;28;20204;-59
2023/03/14 01:54:19;;;;;;;0.50;0.27;;;12.60;99.90;;;;;;5093668;28;20584;-59
2023/03/14 01:56:52;;;;;;;0.10;0.10;;;12.60;99.90;;;;;;5093943;28;20204;-59
2023/03/14 01:59:19;;;;;;;0.53;0.40;;;12.50;99.90;;;;;;5093402;28;20228;-59
2023/03/14 02:01:48;;;;;;;2.00;0.40;;;12.40;99.90;;;;;;5093309;28;20208;-58
2023/03/14 02:04:17;;;;;;;0.43;0.37;;;12.30;99.90;;;;;;5093466;28;20236;-59
2023/03/14 02:06:50;;;;;;;0.70;0.50;;;12.40;99.90;;;;;;5093236;28;20306;-60
2023/03/14 02:09:17;;;;;;;0.20;0.20;;;12.30;99.90;;;;;;5093193;28;20228;-60
2023/03/14 02:11:45;;;;;;;0.30;0.20;;;12.30;99.90;;;;;;5092936;28;20215;-59
2023/03/14 02:14:22;;;;;;;0.83;0.20;;;12.30;99.90;;;;;;5093290;28;20315;-59
2023/03/14 02:16:49;;;;;;;3.30;0.33;;;12.10;99.90;;;;;;5093299;28;20298;-59
2023/03/14 02:19:24;;;;;;;0.37;0.20;;;12.10;99.90;;;;;;5092964;28;20231;-59
2023/03/14 02:21:58;;;;;;;0.70;0.40;;;12.20;99.90;;;;;;5093005;28;20663;-59
2023/03/14 02:24:33;;;;;;;0.63;0.20;;;12.30;99.90;;;;;;5092730;28;20671;-58
2023/03/14 02:27:13;;;;;;;0.33;0.20;;;12.30;99.90;;;;;;5092815;28;20200;-58
2023/03/14 02:29:46;;;;;;;2.23;0.40;;;12.20;99.90;;;;;;5092876;28;20220;-58
2023/03/14 02:32:14;;;;;;;0.67;0.33;;;12.20;99.90;;;;;;5092802;28;20608;-58
2023/03/14 02:34:43;;;;;;;0.30;0.30;;;12.10;99.90;;;;;;5092719;28;20290;-58
2023/03/14 02:37:11;;;;;;;0.20;0.20;;;12.10;99.90;;;;;;5092748;28;20570;-61
2023/03/14 02:39:40;;;;;;;0.30;0.20;;;12.10;99.90;;;;;;5092656;28;20330;-59
2023/03/14 02:42:07;;;;;;;0.40;0.30;;;12.00;99.90;;;;;;5092548;28;20235;-57
2023/03/14 02:44:36;;;;;;;0.27;0.27;;;12.00;99.90;;;;;;5092590;28;20204;-58
2023/03/14 02:47:04;;;;;;;0.73;0.20;;;12.00;99.90;;;;;;5092638;28;20656;-58
2023/03/14 02:49:34;;;;;;;0.20;0.10;;;12.00;99.90;;;;;;5092273;28;20216;-58
2023/03/14 02:52:01;;;;;;;1.00;0.30;;;11.90;99.90;;;;;;5092211;28;20663;-58
2023/03/14 02:54:27;;;;;;;0.90;0.23;;;11.90;99.90;;;;;;5092602;28;20303;-57
2023/03/14 02:56:54;;;;;;;0.70;0.40;;;12.00;99.90;;;;;;5092598;28;20204;-58
2023/03/14 02:59:21;;;;;;;0.30;0.23;;;12.00;99.90;;;;;;5092849;28;20246;-58
2023/03/14 03:01:49;;;;;;;1.03;0.30;;;12.00;99.90;;;;;;5092433;28;20224;-60
2023/03/14 03:04:16;;;;;;;0.40;0.20;;;12.00;99.90;;;;;;5092544;28;20215;-57
2023/03/14 03:06:43;;;;;;;0.73;0.20;;;12.10;99.90;;;;;;5092696;28;20208;-58
2023/03/14 03:09:10;;;;;;;0.60;0.30;;;12.00;99.90;;;;;;5092572;28;20220;-58
2023/03/14 03:11:37;;;;;;;0.10;0.10;;;11.80;99.90;;;;;;5092423;28;20211;-58
2023/03/14 03:14:03;;;;;;;0.90;0.30;;;11.80;99.90;;;;;;5092849;28;20207;-58
2023/03/14 03:16:30;;;;;;;1.30;0.30;;;11.80;99.90;;;;;;5092174;28;20686;-57
2023/03/14 03:18:58;;;;;;;0.30;0.20;;;11.80;99.90;;;;;;5092308;28;20204;-58
2023/03/14 03:21:25;;;;;;;0.73;0.33;;;11.90;99.90;;;;;;5091990;28;20760;-58
2023/03/14 03:23:52;;;;;;;1.10;0.50;;;11.80;99.90;;;;;;5092186;28;20204;-58
2023/03/14 03:26:19;;;;;;;1.43;0.30;;;11.90;99.90;;;;;;5092190;28;20207;-58
2023/03/14 03:28:46;;;;;;;0.40;0.17;;;11.80;99.90;;;;;;5091926;28;20556;-58
2023/03/14 03:31:13;;;;;;;1.07;0.57;;;11.90;99.90;;;;;;5091913;28;20197;-58
2023/03/14 03:33:40;;;;;;;0.40;0.30;;;11.80;99.90;;;;;;5092047;28;20397;-58
2023/03/14 03:36:09;;;;;;;0.43;0.37;;;11.80;99.90;;;;;;5092327;28;20214;-58
2023/03/14 03:38:36;;;;;;;1.23;0.30;;;11.80;99.90;;;;;;5092058;28;20209;-58
2023/03/14 03:41:05;;;;;;;0.90;0.50;;;11.90;99.90;;;;;;5091771;28;20585;-58
2023/03/14 03:43:31;;;;;;;1.77;0.43;;;11.90;99.90;;;;;;5091638;28;20695;-58
2023/03/14 03:45:58;;;;;;;0.90;0.30;;;11.80;99.90;;;;;;5091878;28;20211;-58
2023/03/14 03:48:25;;;;;;;0.33;0.23;;;11.80;99.90;;;;;;5091868;28;20212;-58
2023/03/14 03:50:52;;;;;;;1.43;0.43;;;11.80;99.90;;;;;;5091771;28;20228;-59
2023/03/14 03:53:20;;;;;;;0.67;0.33;;;11.80;99.90;;;;;;5091704;28;20626;-58
2023/03/14 03:55:47;;;;;;;1.90;0.47;;;11.80;99.90;;;;;;5091786;28;20196;-58
2023/03/14 03:58:13;;;;;;;1.20;0.50;;;11.70;99.90;;;;;;5091481;28;20207;-58
2023/03/14 04:00:41;;;;;;;1.60;0.30;;;11.70;99.90;;;;;;5091374;28;20235;-58
2023/03/14 04:03:07;;;;;;;3.03;0.60;;;11.70;99.90;;;;;;5094836;28;20291;-58
2023/03/14 04:05:35;;;;;;;2.10;0.90;;;11.70;99.90;;;;;;5095412;28;20235;-59
2023/03/14 04:08:02;;;;;;;2.33;0.53;;;11.70;99.90;;;;;;5095035;28;20695;-59
2023/03/14 04:10:30;;;;;;;2.23;0.70;;;11.70;99.90;;;;;;5095091;28;20270;-59
2023/03/14 04:12:57;;;;;;;1.50;0.60;;;11.70;99.90;;;;;;5095295;28;20211;-59
2023/03/14 04:15:24;;;;;;;1.30;0.63;;;11.70;99.90;;;;;;5095205;28;20204;-59
2023/03/14 04:17:50;;;;;;;4.07;1.23;;;11.70;99.90;;;;;;5094888;28;20207;-59
2023/03/14 04:20:17;;;;;;;3.03;1.03;;;11.70;99.90;;;;;;5094855;28;20598;-59
2023/03/14 04:22:44;;;;;;;1.63;0.70;;;11.70;99.90;;;;;;5094839;28;20204;-59
2023/03/14 04:25:11;;;;;;;2.03;0.70;;;11.60;99.90;;;;;;5094914;28;20200;-60
2023/03/14 04:27:39;;;;;;;2.47;0.90;;;11.60;99.90;;;;;;5094903;28;20211;-59
2023/03/14 04:30:07;;;;;;;3.20;1.30;;;11.50;99.90;;;;;;5094645;28;20319;-59
2023/03/14 04:32:34;;;;;;;6.30;1.27;;;11.50;99.90;;;;;;5094630;28;20208;-59
2023/03/14 04:35:01;;;;;;;4.93;3.13;;;11.50;99.90;;;;;;5094673;28;20634;-59
2023/03/14 04:37:27;;;;;;;3.87;0.93;;;11.50;99.90;;;;;;5095038;28;20214;-59
2023/03/14 04:39:54;;;;;;;3.00;1.17;;;11.50;99.90;;;;;;5094461;28;20250;-59
2023/03/14 04:42:21;;;;;;;1.97;0.77;;;11.50;99.90;;;;;;5094430;28;20239;-59
2023/03/14 04:44:50;;;;;;;9.27;6.17;;;11.60;99.90;;;;;;5094641;28;20208;-59
2023/03/14 04:47:16;;;;;;;3.70;1.33;;;11.50;99.90;;;;;;5094546;28;20232;-59
2023/03/14 04:49:43;;;;;;;2.20;1.10;;;11.50;99.90;;;;;;5094415;28;20239;-59
2023/03/14 04:52:10;;;;;;;2.83;1.23;;;11.50;99.90;;;;;;5094134;28;20200;-59
2023/03/14 04:54:37;;;;;;;5.87;1.37;;;11.50;99.90;;;;;;5094981;28;20212;-59
2023/03/14 04:57:04;;;;;;;3.40;1.00;;;11.40;99.90;;;;;;5094545;28;20200;-59
2023/03/14 04:59:31;;;;;;;3.67;1.20;;;11.50;99.90;;;;;;5094356;28;20247;-59
2023/03/14 05:01:59;;;;;;;4.97;0.70;;;11.50;99.90;;;;;;5094308;28;20258;-59
2023/03/14 05:04:25;;;;;;;3.03;0.90;;;11.50;99.90;;;;;;5094272;28;20283;-59
2023/03/14 05:06:52;;;;;;;4.50;1.80;;;11.50;99.90;;;;;;5094223;28;20208;-59
2023/03/14 05:09:19;;;;;;;1.43;0.93;;;11.50;99.90;;;;;;5094320;28;20228;-59
2023/03/14 05:11:46;;;;;;;2.97;0.90;;;11.50;99.90;;;;;;5094129;28;20201;-59
2023/03/14 05:14:13;;;;;;;3.60;1.40;;;11.40;99.90;;;;;;5092467;28;20572;-59
2023/03/14 05:16:40;;;;;;;3.03;1.20;;;11.40;99.90;;;;;;5093915;28;20299;-59
2023/03/14 05:19:08;;;;;;;6.07;2.10;;;11.40;99.90;;;;;;5094005;28;20229;-59
2023/03/14 05:21:35;;;;;;;5.50;1.63;;;11.40;99.90;;;;;;5094041;28;20614;-58
2023/03/14 05:24:02;;;;;;;3.53;1.03;;;11.30;99.90;;;;;;5094101;28;20222;-59
2023/03/14 05:26:29;;;;;;;5.60;1.17;;;11.40;99.90;;;;;;5094513;28;20211;-59
2023/03/14 05:28:55;;;;;;;3.80;0.73;;;11.30;99.90;;;;;;5094340;28;20208;-59
2023/03/14 05:31:22;;;;;;;5.27;1.37;;;11.30;99.90;;;;;;5094186;28;20196;-59
2023/03/14 05:33:49;;;;;;;2.00;0.77;;;11.30;99.90;;;;;;5093890;28;20203;-59
2023/03/14 05:36:17;;;;;;;3.97;1.00;;;11.30;99.90;;;;;;5093800;28;20217;-59
2023/03/14 05:38:44;;;;;;;2.30;1.10;;;11.30;99.90;;;;;;5093987;28;20200;-59
2023/03/14 05:41:11;;;;;;;4.13;1.30;;;11.30;99.90;;;;;;5093938;28;20227;-59
2023/03/14 05:43:39;;;;;;;4.30;1.70;;;11.30;99.90;;;;;;5093734;28;20235;-58
2023/03/14 05:46:06;;;;;;;3.63;0.90;;;11.20;99.90;;;;;;5094265;28;20211;-58
2023/03/14 05:48:33;;;;;;;4.30;2.10;;;11.20;99.90;;;;;;5093416;28;20216;-59
2023/03/14 05:51:00;;;;;;;3.47;1.63;;;11.10;99.90;;;;;;5093771;28;20315;-59
2023/03/14 05:53:30;;;;;;;1.93;1.00;;;11.00;99.90;;;;;;5093831;28;20291;-58
2023/03/14 05:55:57;;;;;;;2.47;1.10;;;11.10;99.90;;;;;;5094274;28;20265;-59
2023/03/14 05:58:25;;;;;;;3.07;1.03;;;11.10;99.90;;;;;;5093902;28;20204;-58
2023/03/14 06:00:52;;;;;;;4.10;1.50;;;11.20;99.90;;;;;;5093420;28;20242;-59
2023/03/14 06:03:19;;;;;;;2.70;1.23;;;11.20;99.90;;;;;;5093963;28;20210;-59
2023/03/14 06:05:45;;;;;;;2.73;0.83;;;11.30;99.90;;;;;;5094005;28;20215;-59
2023/03/14 06:08:12;;;;;;;2.70;1.87;;;11.40;99.90;;;;;;5093788;28;20216;-59
2023/03/14 06:10:41;;;;;;;2.90;1.10;;;11.50;99.90;;;;;;5093273;28;20242;-59
2023/03/14 06:13:08;;;;;;;4.17;1.30;;;11.70;99.90;;;;;;5092870;28;20211;-58
2023/03/14 06:15:35;;;;;;;4.97;4.13;;;11.80;99.90;;;;;;5093573;28;20213;-58
2023/03/14 06:18:02;;;;;;;5.03;1.50;;;11.90;99.90;;;;;;5093211;28;20672;-58
2023/03/14 06:20:29;;;;;;;2.70;1.00;;;12.10;99.90;;;;;;5094308;28;20224;-58
2023/03/14 06:22:56;;;;;;;4.50;1.27;;;12.10;99.90;;;;;;5092967;28;20307;-59
2023/03/14 06:25:23;;;;;;;2.40;1.10;;;12.10;99.90;;;;;;5092964;28;20215;-58
2023/03/14 06:27:51;;;;;;;2.10;0.90;;;12.20;99.90;;;;;;5092659;28;20204;-58
2023/03/14 06:30:18;;;;;;;3.47;1.10;;;12.20;99.90;;;;;;5093262;28;20764;-58
2023/03/14 06:32:45;;;;;;;2.10;0.63;;;12.40;99.90;;;;;;5093124;28;20200;-58
2023/03/14 06:35:11;;;;;;;2.23;0.90;;;12.40;99.90;;;;;;5093299;28;20291;-58
2023/03/14 06:37:38;;;;;;;3.83;1.00;;;12.50;99.90;;;;;;5093342;28;20204;-57
2023/03/14 06:40:07;;;;;;;2.80;0.90;;;12.50;99.90;;;;;;5093004;28;20708;-58
2023/03/14 06:42:34;;;;;;;1.90;0.63;;;12.50;99.90;;;;;;5093236;28;20764;-58
2023/03/14 06:45:02;;;;;;;1.67;0.67;;;12.50;99.90;;;;;;5093131;28;20648;-59
2023/03/14 06:47:29;;;;;;;2.87;1.10;;;12.40;99.90;;;;;;5092923;28;20199;-57
2023/03/14 06:49:56;;;;;;;1.80;0.90;;;12.40;99.90;;;;;;5093159;28;20216;-59
2023/03/14 06:52:23;;;;;;;2.90;1.00;;;12.60;99.90;;;;;;5093012;28;20200;-58
2023/03/14 06:54:50;;;;;;;1.93;0.80;;;12.70;99.90;;;;;;5093458;28;20204;-58
2023/03/14 06:57:17;;;;;;;3.43;1.13;;;12.80;99.90;;;;;;5093164;28;20200;-59
2023/03/14 06:59:43;;;;;;;1.73;0.60;;;13.00;99.90;;;;;;5093239;28;20754;-58
2023/03/14 07:02:13;;;;;;;1.80;0.57;;;13.80;99.90;;;;;;5093222;28;20228;-59
2023/03/14 07:04:40;;;;;;;1.80;0.80;;;14.90;99.90;;;;;;5093185;28;20299;-59
2023/03/14 07:07:07;;;;;;;2.20;1.17;;;15.80;99.90;;;;;;5092843;28;20580;-58
2023/03/14 07:09:34;;;;;;;2.72;0.77;;;16.90;99.90;;;;;;5092676;28;20703;-60
2023/03/14 07:12:01;;;;;;;1.55;0.65;;;17.80;99.90;;;;;;5092552;28;20282;-59
2023/03/14 07:14:28;;;;;;;1.42;0.68;;;18.70;99.90;;;;;;5093023;28;20209;-58
2023/03/14 07:16:55;;;;;;;2.75;0.90;;;19.40;99.90;;;;;;5092753;28;20228;-61
2023/03/14 07:19:23;;;;;;;3.55;1.67;;;20.20;99.90;;;;;;5092946;28;20646;-58
2023/03/14 07:21:50;;;;;;;3.28;0.93;;;20.90;99.90;;;;;;5093075;28;20307;-59
2023/03/14 07:24:17;;;;;;;1.23;0.52;;;21.40;99.90;;;;;;5093011;28;20283;-60
2023/03/14 07:26:44;;;;;;;1.35;0.60;;;22.00;99.90;;;;;;5093831;28;20212;-59
2023/03/14 07:29:11;;;;;;;1.73;0.73;;;22.70;98.60;;;;;;5093475;28;20224;-60
2023/03/14 07:31:37;;;;;;;2.03;0.60;;;23.00;97.70;;;;;;5093535;28;20207;-60
2023/03/14 07:34:04;;;;;;;3.65;0.60;;;23.70;96.20;;;;;;5092798;28;20207;-60
2023/03/14 07:36:32;;;;;;;2.92;0.85;;;24.20;93.70;;;;;;5093794;28;20290;-60
2023/03/14 07:38:59;;;;;;;5.65;0.60;;;24.30;92.80;;;;;;5097183;28;20211;-60
2023/03/14 07:41:26;;;;;;;2.55;0.57;;;24.20;92.30;;;;;;5097515;28;20258;-60
2023/03/14 07:43:53;;;;;;;1.48;0.63;;;24.20;92.10;;;;;;5097009;28;20579;-60
2023/03/14 07:46:20;;;;;;;2.00;0.65;;;24.30;91.50;;;;;;5097071;28;20208;-60
2023/03/14 07:48:47;;;;;;;0.95;0.55;;;24.60;90.40;;;;;;5097147;28;20690;-58
2023/03/14 07:51:14;;;;;;;1.17;0.47;;;24.20;90.30;;;;;;5096935;28;20618;-59
2023/03/14 07:53:43;;;;;;;3.20;0.70;;;23.80;90.30;;;;;;5097112;28;20204;-58
2023/03/14 07:56:10;;;;;;;1.73;0.65;;;23.30;90.90;;;;;;5097036;28;20204;-59
2023/03/14 07:58:37;;;;;;;2.83;0.90;;;22.90;91.70;;;;;;5096540;28;20205;-59
2023/03/14 08:01:03;;;;;;;1.55;0.57;;;22.40;92.10;;;;;;5096763;28;20243;-59
2023/03/14 08:03:30;;;;;;;2.75;0.55;;;21.70;92.60;;;;;;5096424;28;20203;-60
2023/03/14 08:05:57;;;;;;;1.08;0.50;;;20.90;93.70;;;;;;5096793;28;20300;-57
2023/03/14 08:08:24;;;;;;;1.98;0.63;;;20.20;94.40;;;;;;5096757;28;20295;-59
2023/03/14 08:10:52;;;;;;;2.88;0.80;;;19.50;95.80;;;;;;5097515;28;20255;-58
2023/03/14 08:13:19;;;;;;;3.75;0.80;;;18.70;96.60;;;;;;5097368;28;20204;-58
2023/03/14 08:15:50;;;;;;;1.95;0.60;;;18.20;97.90;;;;;;5097174;28;20207;-58
2023/03/14 08:18:17;;;;;;;1.98;0.80;;;17.80;98.90;;;;;;5097477;28;20212;-59
2023/03/14 08:20:44;;;;;;;2.25;0.63;;;17.60;99.60;;;;;;5097150;28;20224;-59
2023/03/14 08:23:11;;;;;;;1.58;0.40;;;17.40;99.90;;;;;;5097184;28;20224;-58
2023/03/14 08:25:39;;;;;;;1.42;0.40;;;17.30;99.90;;;;;;5097051;28;20593;-58
2023/03/14 08:28:07;;;;;;;1.25;0.40;;;17.30;99.90;;;;;;5096762;28;20200;-58
2023/03/14 08:30:34;;;;;;;2.30;0.80;;;17.30;99.90;;;;;;5096829;28;20239;-58
2023/03/14 08:33:01;;;;;;;1.75;0.43;;;17.30;99.90;;;;;;5097263;28;20227;-59
2023/03/14 08:35:28;;;;;;;1.83;0.65;;;17.40;99.90;;;;;;5096869;28;20200;-58
2023/03/14 08:37:55;;;;;;;1.33;0.40;;;17.40;99.90;;;;;;5097543;28;20521;-59
2023/03/14 08:40:22;;;;;;;2.05;0.50;;;17.40;99.90;;;;;;5097440;28;20726;-58
2023/03/14 08:42:49;;;;;;;2.03;0.63;;;17.60;99.90;;;;;;5097318;28;20639;-59
2023/03/14 08:45:18;;;;;;;1.77;0.40;;;17.90;99.90;;;;;;5097066;28;20262;-59
2023/03/14 08:47:45;;;;;;;1.52;0.57;;;18.20;99.90;;;;;;5097195;28;20212;-60
2023/03/14 08:50:13;;;;;;;3.88;0.38;;;18.30;99.10;;;;;;5097065;28;20247;-58
2023/03/14 08:52:41;;;;;;;2.60;0.50;;;18.20;99.30;;;;;;5097895;28;20579;-60
2023/03/14 08:55:09;;;;;;;0.40;0.30;;;17.90;99.10;;;;;;5097690;28;20224;-59
2023/03/14 08:57:36;;;;;;;2.50;0.50;;;17.70;99.30;;;;;;5097036;28;20231;-59
2023/03/14 09:00:08;;;;;;;2.55;0.50;;;17.60;99.80;;;;;;5097347;28;20232;-60
2023/03/14 09:02:37;;;;;;;2.28;0.95;;;17.80;99.90;;;;;;5096091;28;20587;-60
2023/03/14 09:05:04;;;;;;;3.50;1.00;;;17.80;99.70;;;;;;5096163;28;20208;-59
2023/03/14 09:07:31;;;;;;;0.73;0.50;;;17.70;99.40;;;;;;5095829;28;20215;-59
2023/03/14 09:09:57;;;;;;;1.08;0.40;;;17.50;99.20;;;;;;5096400;28;20657;-59
2023/03/14 09:12:24;;;;;;;1.35;0.40;;;17.20;99.40;;;;;;5096420;28;20204;-58
2023/03/14 09:14:51;;;;;;;2.55;0.50;;;16.80;99.70;;;;;;5096339;28;20208;-59
2023/03/14 09:17:18;;;;;;;1.80;0.30;;;16.70;99.80;;;;;;5096224;28;20246;-58
2023/03/14 09:19:46;;;;;;;0.52;0.20;;;16.40;99.70;;;;;;5096531;28;20673;-60
2023/03/14 09:22:12;;;;;;;0.55;0.30;;;16.30;99.90;;;;;;5096698;28;20227;-59
2023/03/14 09:24:40;;;;;;;1.33;0.47;;;16.40;99.90;;;;;;5096642;28;20215;-59
2023/03/14 09:27:08;;;;;;;1.10;0.32;;;16.40;99.90;;;;;;5096729;28;20667;-59
2023/03/14 09:29:34;;;;;;;1.00;0.20;;;16.50;99.90;;;;;;5096289;28;20815;-61
2023/03/14 09:32:01;;;;;;;3.53;0.40;;;16.50;99.90;;;;;;5095745;28;20290;-59
2023/03/14 09:34:28;;;;;;;0.70;0.35;;;16.60;99.90;;;;;;5095221;28;20758;-58
2023/03/14 09:36:56;;;;;;;0.40;0.20;;;16.50;99.90;;;;;;5095478;28;20211;-58
2023/03/14 09:39:23;;;;;;;2.70;0.20;;;16.40;99.90;;;;;;5095486;28;20675;-58
2023/03/14 09:41:54;;;;;;;1.50;0.55;;;16.40;99.90;;;;;;5095555;28;20208;-58
2023/03/14 09:44:25;;;;;;;1.38;0.28;;;16.40;99.90;;;;;;5095325;28;20215;-58
2023/03/14 09:46:55;;;;;;;4.07;0.50;;;16.50;99.90;;;;;;5095351;28;20583;-58
2023/03/14 09:49:26;;;;;;;0.45;0.20;;;16.50;99.90;;;;;;5094142;28;20300;-59
2023/03/14 09:51:57;;;;;;;2.77;0.70;;;16.50;99.90;;;;;;5093930;28;20200;-59
2023/03/14 09:54:44;;;;;;;0.47;0.28;;;16.50;99.90;;;;;;5093720;28;20615;-58
2023/03/14 09:57:15;;;;;;;0.30;0.20;;;16.70;99.90;;;;;;5094235;28;20257;-59
2023/03/14 09:59:44;;;;;;;0.70;0.30;;;16.80;99.90;;;;;;5092951;28;20238;-59
2023/03/14 10:02:18;;;;;;;1.42;0.52;;;16.90;99.90;;;;;;5093532;28;20236;-59
2023/03/14 10:04:46;;;;;;;3.07;0.40;;;17.00;99.90;;;;;;5093475;28;20215;-59
2023/03/14 10:07:19;;;;;;;2.37;0.73;;;17.00;99.90;;;;;;5093508;28;20629;-59
2023/03/14 10:09:48;;;;;;;1.95;0.50;;;17.10;99.90;;;;;;5093400;28;20731;-59
2023/03/14 10:12:15;;;;;;;2.05;0.30;;;17.20;99.90;;;;;;5092796;28;20664;-59
2023/03/14 10:14:49;;;;;;;1.08;0.52;;;17.40;99.90;;;;;;5092976;28;20555;-59
2023/03/14 10:17:17;;;;;;;1.25;0.40;;;17.50;99.90;;;;;;5092953;28;20293;-60
2023/03/14 10:19:55;;;;;;;3.13;0.32;;;17.50;99.90;;;;;;5093284;28;20262;-60
2023/03/14 10:22:25;;;;;;;2.05;0.60;;;17.50;99.90;;;;;;5092857;28;20691;-60
2023/03/14 10:24:55;;;;;;;1.58;0.50;;;17.50;99.90;;;;;;5093016;28;20207;-58
2023/03/14 10:27:28;;;;;;;1.20;0.30;;;17.40;99.90;;;;;;5092616;28;20479;-60
2023/03/14 10:29:57;;;;;;;0.70;0.37;;;17.30;99.90;;;;;;5093245;28;20330;-58
2023/03/14 10:32:32;;;;;;;1.45;0.35;;;17.20;99.90;;;;;;5092638;28;20206;-60
2023/03/14 10:35:09;;;;;;;0.50;0.20;;;17.10;99.90;;;;;;5092847;28;20231;-59
2023/03/14 10:37:51;;;;;;;1.88;0.25;;;17.10;99.90;;;;;;5092597;28;20208;-60
2023/03/14 10:40:19;;;;;;;0.65;0.40;;;17.10;99.90;;;;;;5092302;28;20224;-60
2023/03/14 10:42:49;;;;;;;1.90;0.28;;;17.30;99.90;;;;;;5092582;28;20232;-64
2023/03/14 10:45:32;;;;;;;0.85;0.30;;;17.50;99.90;;;;;;5092451;28;20219;-60
2023/03/14 10:48:06;;;;;;;0.20;0.20;;;17.70;99.60;;;;;;5092504;28;20227;-57
2023/03/14 10:50:33;;;;;;;0.28;0.28;;;17.70;99.50;;;;;;5092631;28;20695;-57
2023/03/14 10:53:06;;;;;;;1.00;0.35;;;17.60;99.50;;;;;;5092639;28;20200;-57
2023/03/14 10:55:42;;;;;;;0.50;0.30;;;17.60;99.50;;;;;;5092453;28;20632;-57
2023/03/14 10:58:22;;;;;;;1.42;0.80;;;17.40;99.60;;;;;;5092229;28;20209;-57
2023/03/14 11:00:54;;;;;;;0.38;0.22;;;17.10;99.80;;;;;;5092111;28;20231;-55
2023/03/14 11:03:23;;;;;;;1.10;0.60;;;16.90;99.90;;;;;;5092015;28;20220;-56
2023/03/14 11:05:56;;;;;;;1.90;0.50;;;16.80;99.90;;;;;;5092175;28;20231;-56
2023/03/14 11:08:30;;;;;;;1.02;0.30;;;16.70;99.90;;;;;;5092641;28;20581;-56
2023/03/14 11:11:11;;;;;;;0.80;0.35;;;16.70;99.90;;;;;;5093426;28;20525;-55
2023/03/14 11:13:42;;;;;;;2.97;1.20;;;16.70;99.90;;;;;;5096449;28;20211;-57
2023/03/14 11:16:17;;;;;;;0.32;0.32;;;16.70;99.90;;;;;;5096500;28;20208;-56
2023/03/14 11:19:30;;;;;;;1.38;0.35;;;16.80;99.90;;;;;;5096576;28;20215;-56
2023/03/14 11:22:03;;;;;;;0.70;0.30;;;16.70;99.90;;;;;;5031246;28;20210;-56
2023/03/14 11:24:45;;;;;;;0.50;0.20;;;16.60;99.90;;;;;;5090583;28;20251;-58
2023/03/14 11:27:18;;;;;;;2.97;0.50;;;16.50;99.90;;;;;;5096061;28;20265;-56
2023/03/14 11:29:55;;;;;;;2.15;0.60;;;16.50;99.90;;;;;;5096056;28;20225;-56
2023/03/14 11:32:33;;;;;;;1.08;0.52;;;16.30;99.90;;;;;;5095557;28;20200;-55
2023/03/14 11:35:04;;;;;;;0.35;0.22;;;16.20;99.90;;;;;;5096286;28;20208;-55
2023/03/14 11:37:35;;;;;;;0.38;0.30;;;16.00;99.90;;;;;;5096001;28;20208;-56
2023/03/14 11:40:09;;;;;;;0.50;0.20;;;16.00;99.90;;;;;;5095714;28;20224;-56
2023/03/14 11:42:36;;;;;;;1.87;0.33;;;15.80;99.90;;;;;;5095577;28;20314;-54
2023/03/14 11:45:05;;;;;;;0.40;0.40;;;15.60;99.90;;;;;;5095875;28;20208;-55
2023/03/14 11:47:38;;;;;;;0.40;0.40;;;15.40;99.90;;;;;;5095728;28;20562;-58
2023/03/14 11:50:14;;;;;;;0.63;0.20;;;15.30;99.90;;;;;;5095969;28;20224;-56
2023/03/14 11:52:47;;;;;;;0.68;0.50;;;15.20;99.90;;;;;;5095703;28;20258;-55
2023/03/14 11:55:21;;;;;;;2.20;0.50;;;15.20;99.90;;;;;;5095716;28;20287;-56
2023/03/14 11:57:50;;;;;;;0.40;0.30;;;15.20;99.90;;;;;;5095783;28;20231;-56
2023/03/14 12:00:19;;;;;;;0.50;0.47;;;15.20;99.90;;;;;;5095315;28;20722;-57
2023/03/14 12:02:52;;;;;;;1.37;0.90;;;15.30;99.90;;;;;;5095367;28;20277;-55
2023/03/14 12:05:45;;;;;;;1.03;0.40;;;15.50;99.90;;;;;;5095821;28;20493;-55
2023/03/14 12:08:38;;;;;;;2.53;0.20;;;15.70;99.90;;;;;;5096402;28;20206;-56
2023/03/14 12:11:16;;;;;;;0.20;0.20;;;15.80;99.90;;;;;;5096149;28;20572;-60
2023/03/14 12:13:48;;;;;;;0.20;0.13;;;15.60;99.90;;;;;;5095349;28;20634;-60
2023/03/14 12:16:30;;;;;;;2.30;0.50;;;15.40;99.90;;;;;;5096266;28;20216;-60
2023/03/14 12:18:57;;;;;;;0.50;0.20;;;15.40;99.90;;;;;;5095993;28;20208;-59
2023/03/14 12:21:44;;;;;;;0.37;0.20;;;15.30;99.90;;;;;;5095606;28;20208;-59
2023/03/14 12:24:19;;;;;;;0.50;0.40;;;15.10;99.90;;;;;;5095366;28;20223;-61
2023/03/14 12:26:53;;;;;;;1.53;0.50;;;14.80;99.90;;;;;;5095909;28;20539;-59
2023/03/14 12:29:20;;;;;;;1.17;0.50;;;14.80;99.90;;;;;;5095807;28;20248;-59
2023/03/14 12:31:48;;;;;;;0.10;0.10;;;14.90;99.90;;;;;;5096358;28;20215;-57
2023/03/14 12:34:30;;;;;;;0.70;0.43;;;15.20;99.90;;;;;;5095306;28;20200;-56
2023/03/14 12:37:07;;;;;;;0.57;0.30;;;15.40;99.90;;;;;;5095116;28;20214;-56
2023/03/14 12:39:47;;;;;;;1.60;0.33;;;15.40;99.90;;;;;;5094943;28;20324;-60
2023/03/14 12:42:22;;;;;;;0.60;0.30;;;15.40;99.90;;;;;;5094973;28;20203;-57
2023/03/14 12:44:50;;;;;;;1.27;0.30;;;15.30;99.90;;;;;;5094925;28;20220;-57
2023/03/14 12:47:59;;;;;;;3.50;0.70;;;15.00;99.90;;;;;;5095068;28;20295;-60
2023/03/14 12:50:31;;;;;;;0.40;0.37;;;14.70;99.90;;;;;;5094821;28;20247;-57
2023/03/14 12:53:23;;;;;;;3.30;0.90;;;14.60;99.90;;;;;;5094830;28;20203;-59
2023/03/14 12:55:56;;;;;;;1.17;0.50;;;14.30;99.90;;;;;;5065421;28;20218;-60
2023/03/14 12:58:32;;;;;;;1.03;0.47;;;13.90;99.90;;;;;;5095063;28;20188;-57